sensor_id;sensor_type;location;lat;lon;timestamp;temperature;humidity
43015;DHT22;28637;50.554;7.032;2023-07-16T00:03:14;19.50;99.90
43015;DHT22;28637;50.554;7.032;2023-07-16T00:08:15;19.40;99.90
43015;DHT22;28637;50.554;7.032;2023-07-16T00:13:16;19.30;99.90
43015;DHT22;28637;50.554;7.032;2023-07-16T00:18:16;19.20;99.90
43015;DHT22;28637;50.554;7.032;2023-07-16T00:23:17;19.20;99.90
43015;DHT22;28637;50.554;7.032;2023-07-16T00:28:17;19.10;99.90
43015;DHT22;28637;50.554;7.032;2023-07-16T00:33:18;19.00;99.90
43015;DHT22;28637;50.554;7.032;2023-07-16T00:38:19;18.90;99.90
43015;DHT22;28637;50.554;7.032;2023-07-16T00:43:20;18.90;99.90
43015;DHT22;28637;50.554;7.032;2023-07-16T00:48:21;18.90;99.90
43015;DHT22;28637;50.554;7.032;2023-07-16T00:53:22;18.80;99.90
43015;DHT22;28637;50.554;7.032;2023-07-16T00:58:23;18.80;99.90
43015;DHT22;28637;50.554;7.032;2023-07-16T01:03:23;18.80;99.90
43015;DHT22;28637;50.554;7.032;2023-07-16T01:08:49;18.60;99.90
43015;DHT22;28637;50.554;7.032;2023-07-16T01:13:52;18.60;99.90
43015;DHT22;28637;50.554;7.032;2023-07-16T01:18:53;18.60;99.90
43015;DHT22;28637;50.554;7.032;2023-07-16T01:24:53;18.60;99.90
43015;DHT22;28637;50.554;7.032;2023-07-16T01:29:58;18.50;99.90
43015;DHT22;28637;50.554;7.032;2023-07-16T01:35:02;18.40;99.90
43015;DHT22;28637;50.554;7.032;2023-07-16T01:40:06;18.40;99.90
43015;DHT22;28637;50.554;7.032;2023-07-16T01:45:09;18.30;99.90
43015;DHT22;28637;50.554;7.032;2023-07-16T01:50:10;18.30;99.90
43015;DHT22;28637;50.554;7.032;2023-07-16T01:55:10;18.30;99.90
43015;DHT22;28637;50.554;7.032;2023-07-16T02:00:11;18.30;99.90
43015;DHT22;28637;50.554;7.032;2023-07-16T02:05:12;18.20;99.90
43015;DHT22;28637;50.554;7.032;2023-07-16T02:10:12;18.10;99.90
43015;DHT22;28637;50.554;7.032;2023-07-16T02:15:13;18.00;99.90
43015;DHT22;28637;50.554;7.032;2023-07-16T02:20:14;18.00;99.90
43015;DHT22;28637;50.554;7.032;2023-07-16T02:25:14;17.90;99.90
43015;DHT22;28637;50.554;7.032;2023-07-16T02:30:15;17.90;99.90
43015;DHT22;28637;50.554;7.032;2023-07-16T02:35:16;17.80;99.90
43015;DHT22;28637;50.554;7.032;2023-07-16T02:40:17;17.70;99.90
43015;DHT22;28637;50.554;7.032;2023-07-16T02:45:18;17.70;99.90
43015;DHT22;28637;50.554;7.032;2023-07-16T02:50:18;17.50;99.90
43015;DHT22;28637;50.554;7.032;2023-07-16T02:55:19;17.50;99.90
43015;DHT22;28637;50.554;7.032;2023-07-16T03:00:20;17.50;99.90
43015;DHT22;28637;50.554;7.032;2023-07-16T03:05:20;17.50;99.90
43015;DHT22;28637;50.554;7.032;2023-07-16T03:10:22;17.50;99.90
43015;DHT22;28637;50.554;7.032;2023-07-16T03:15:22;17.50;99.90
43015;DHT22;28637;50.554;7.032;2023-07-16T03:20:23;17.40;99.90
43015;DHT22;28637;50.554;7.032;2023-07-16T03:25:23;17.40;99.90
43015;DHT22;28637;50.554;7.032;2023-07-16T03:30:24;17.40;99.90
43015;DHT22;28637;50.554;7.032;2023-07-16T03:35:25;17.40;99.90
43015;DHT22;28637;50.554;7.032;2023-07-16T03:40:27;17.30;99.90
43015;DHT22;28637;50.554;7.032;2023-07-16T03:45:27;17.30;99.90
43015;DHT22;28637;50.554;7.032;2023-07-16T03:50:28;17.10;99.90
43015;DHT22;28637;50.554;7.032;2023-07-16T03:55:29;17.10;99.90
43015;DHT22;28637;50.554;7.032;2023-07-16T04:00:30;17.10;99.90
43015;DHT22;28637;50.554;7.032;2023-07-16T04:05:30;17.00;99.90
43015;DHT22;28637;50.554;7.032;2023-07-16T04:10:31;16.90;99.90
43015;DHT22;28637;50.554;7.032;2023-07-16T04:15:31;17.00;99.90
43015;DHT22;28637;50.554;7.032;2023-07-16T04:20:32;16.90;99.90
43015;DHT22;28637;50.554;7.032;2023-07-16T04:25:34;16.90;99.90
43015;DHT22;28637;50.554;7.032;2023-07-16T04:30:34;16.90;99.90
43015;DHT22;28637;50.554;7.032;2023-07-16T04:35:35;16.90;99.90
43015;DHT22;28637;50.554;7.032;2023-07-16T04:40:35;16.90;99.90
43015;DHT22;28637;50.554;7.032;2023-07-16T04:45:36;16.90;99.90
43015;DHT22;28637;50.554;7.032;2023-07-16T04:50:37;16.80;99.90
43015;DHT22;28637;50.554;7.032;2023-07-16T04:55:38;17.00;99.90
43015;DHT22;28637;50.554;7.032;2023-07-16T05:00:39;17.10;99.90
43015;DHT22;28637;50.554;7.032;2023-07-16T05:05:40;17.20;99.90
43015;DHT22;28637;50.554;7.032;2023-07-16T05:10:41;17.20;99.90
43015;DHT22;28637;50.554;7.032;2023-07-16T05:15:44;17.30;99.90
43015;DHT22;28637;50.554;7.032;2023-07-16T05:20:47;17.20;99.90
43015;DHT22;28637;50.554;7.032;2023-07-16T05:25:49;17.30;99.90
43015;DHT22;28637;50.554;7.032;2023-07-16T05:30:58;17.40;99.90
43015;DHT22;28637;50.554;7.032;2023-07-16T05:35:59;17.50;99.90
43015;DHT22;28637;50.554;7.032;2023-07-16T05:41:01;17.60;99.90
43015;DHT22;28637;50.554;7.032;2023-07-16T05:46:03;17.70;99.90
43015;DHT22;28637;50.554;7.032;2023-07-16T05:51:05;17.70;99.90
43015;DHT22;28637;50.554;7.032;2023-07-16T05:56:06;17.90;99.90
43015;DHT22;28637;50.554;7.032;2023-07-16T06:01:06;18.10;99.90
43015;DHT22;28637;50.554;7.032;2023-07-16T06:06:10;18.10;99.90
43015;DHT22;28637;50.554;7.032;2023-07-16T06:11:12;18.20;99.90
43015;DHT22;28637;50.554;7.032;2023-07-16T06:16:12;18.50;99.90
43015;DHT22;28637;50.554;7.032;2023-07-16T06:21:13;18.40;99.90
43015;DHT22;28637;50.554;7.032;2023-07-16T06:26:14;18.50;99.90
43015;DHT22;28637;50.554;7.032;2023-07-16T06:31:15;18.60;99.90
43015;DHT22;28637;50.554;7.032;2023-07-16T06:36:15;18.70;99.90
43015;DHT22;28637;50.554;7.032;2023-07-16T06:41:17;18.70;99.90
43015;DHT22;28637;50.554;7.032;2023-07-16T06:46:18;18.80;99.90
43015;DHT22;28637;50.554;7.032;2023-07-16T06:51:18;19.20;99.90
43015;DHT22;28637;50.554;7.032;2023-07-16T06:56:19;19.60;99.90
43015;DHT22;28637;50.554;7.032;2023-07-16T07:01:19;19.80;99.90
43015;DHT22;28637;50.554;7.032;2023-07-16T07:06:22;19.90;99.90
43015;DHT22;28637;50.554;7.032;2023-07-16T07:11:22;20.10;99.90
43015;DHT22;28637;50.554;7.032;2023-07-16T07:16:23;20.00;99.90
43015;DHT22;28637;50.554;7.032;2023-07-16T07:21:24;20.10;99.90
43015;DHT22;28637;50.554;7.032;2023-07-16T07:26:25;20.10;99.90
43015;DHT22;28637;50.554;7.032;2023-07-16T07:31:25;20.40;99.90
43015;DHT22;28637;50.554;7.032;2023-07-16T07:36:26;20.40;99.90
43015;DHT22;28637;50.554;7.032;2023-07-16T07:41:27;20.40;99.90
43015;DHT22;28637;50.554;7.032;2023-07-16T07:46:27;20.40;99.90
43015;DHT22;28637;50.554;7.032;2023-07-16T07:51:28;20.40;99.90
43015;DHT22;28637;50.554;7.032;2023-07-16T07:56:29;20.20;99.90
43015;DHT22;28637;50.554;7.032;2023-07-16T08:01:30;20.50;99.90
43015;DHT22;28637;50.554;7.032;2023-07-16T08:06:31;20.60;99.90
43015;DHT22;28637;50.554;7.032;2023-07-16T08:11:32;20.90;99.90
43015;DHT22;28637;50.554;7.032;2023-07-16T08:16:33;21.20;99.90
43015;DHT22;28637;50.554;7.032;2023-07-16T08:21:33;21.40;99.90
43015;DHT22;28637;50.554;7.032;2023-07-16T08:26:34;21.00;99.90
43015;DHT22;28637;50.554;7.032;2023-07-16T08:31:35;20.50;99.90
43015;DHT22;28637;50.554;7.032;2023-07-16T08:36:36;20.70;99.60
43015;DHT22;28637;50.554;7.032;2023-07-16T08:41:39;21.10;99.90
43015;DHT22;28637;50.554;7.032;2023-07-16T08:46:54;20.90;98.80
43015;DHT22;28637;50.554;7.032;2023-07-16T08:51:56;20.60;99.40
43015;DHT22;28637;50.554;7.032;2023-07-16T08:56:57;20.60;98.40
43015;DHT22;28637;50.554;7.032;2023-07-16T09:01:58;20.60;98.80
43015;DHT22;28637;50.554;7.032;2023-07-16T09:06:59;20.20;98.90
43015;DHT22;28637;50.554;7.032;2023-07-16T09:11:59;20.50;99.90
43015;DHT22;28637;50.554;7.032;2023-07-16T09:17:00;21.00;99.00
43015;DHT22;28637;50.554;7.032;2023-07-16T09:22:02;21.40;98.40
43015;DHT22;28637;50.554;7.032;2023-07-16T09:27:03;21.30;98.30
43015;DHT22;28637;50.554;7.032;2023-07-16T09:32:04;21.40;99.10
43015;DHT22;28637;50.554;7.032;2023-07-16T09:37:07;21.80;97.40
43015;DHT22;28637;50.554;7.032;2023-07-16T09:42:08;21.90;96.80
43015;DHT22;28637;50.554;7.032;2023-07-16T09:47:09;22.00;96.30
43015;DHT22;28637;50.554;7.032;2023-07-16T09:52:10;22.30;96.80
43015;DHT22;28637;50.554;7.032;2023-07-16T09:57:11;22.60;96.30
43015;DHT22;28637;50.554;7.032;2023-07-16T10:02:11;22.10;95.40
43015;DHT22;28637;50.554;7.032;2023-07-16T10:07:20;22.10;95.00
43015;DHT22;28637;50.554;7.032;2023-07-16T10:12:23;22.50;94.80
43015;DHT22;28637;50.554;7.032;2023-07-16T10:17:26;22.20;94.90
43015;DHT22;28637;50.554;7.032;2023-07-16T10:22:38;22.30;95.00
43015;DHT22;28637;50.554;7.032;2023-07-16T10:27:38;22.70;95.50
43015;DHT22;28637;50.554;7.032;2023-07-16T10:32:51;23.20;94.50
43015;DHT22;28637;50.554;7.032;2023-07-16T10:37:54;22.90;93.00
43015;DHT22;28637;50.554;7.032;2023-07-16T10:42:55;23.00;93.50
43015;DHT22;28637;50.554;7.032;2023-07-16T10:47:57;23.60;93.90
43015;DHT22;28637;50.554;7.032;2023-07-16T10:52:57;24.00;92.30
43015;DHT22;28637;50.554;7.032;2023-07-16T10:57:58;23.80;92.00
43015;DHT22;28637;50.554;7.032;2023-07-16T11:02:59;23.70;92.70
43015;DHT22;28637;50.554;7.032;2023-07-16T11:07:59;24.10;90.90
43015;DHT22;28637;50.554;7.032;2023-07-16T11:13:00;24.00;91.60
43015;DHT22;28637;50.554;7.032;2023-07-16T11:18:02;23.90;90.90
43015;DHT22;28637;50.554;7.032;2023-07-16T11:23:04;23.40;91.80
43015;DHT22;28637;50.554;7.032;2023-07-16T11:28:04;23.60;90.70
43015;DHT22;28637;50.554;7.032;2023-07-16T11:33:12;23.30;90.90
43015;DHT22;28637;50.554;7.032;2023-07-16T11:38:13;23.50;90.80
43015;DHT22;28637;50.554;7.032;2023-07-16T11:43:13;23.80;90.40
43015;DHT22;28637;50.554;7.032;2023-07-16T11:48:14;23.60;90.80
43015;DHT22;28637;50.554;7.032;2023-07-16T11:53:16;24.00;90.80
43015;DHT22;28637;50.554;7.032;2023-07-16T11:58:17;23.30;90.60
43015;DHT22;28637;50.554;7.032;2023-07-16T12:03:18;23.60;90.40
43015;DHT22;28637;50.554;7.032;2023-07-16T12:08:18;23.70;89.30
43015;DHT22;28637;50.554;7.032;2023-07-16T12:13:19;23.90;90.50
43015;DHT22;28637;50.554;7.032;2023-07-16T12:18:19;24.10;89.10
43015;DHT22;28637;50.554;7.032;2023-07-16T12:23:20;23.80;86.20
43015;DHT22;28637;50.554;7.032;2023-07-16T12:28:20;23.60;88.30
43015;DHT22;28637;50.554;7.032;2023-07-16T12:33:21;23.40;88.60
43015;DHT22;28637;50.554;7.032;2023-07-16T12:38:21;23.20;87.50
43015;DHT22;28637;50.554;7.032;2023-07-16T12:43:23;22.80;89.10
43015;DHT22;28637;50.554;7.032;2023-07-16T12:48:23;23.20;87.80
43015;DHT22;28637;50.554;7.032;2023-07-16T12:53:25;23.30;87.60
43015;DHT22;28637;50.554;7.032;2023-07-16T12:58:25;23.40;86.50
43015;DHT22;28637;50.554;7.032;2023-07-16T13:03:26;23.20;86.50
43015;DHT22;28637;50.554;7.032;2023-07-16T13:08:27;23.40;86.90
43015;DHT22;28637;50.554;7.032;2023-07-16T13:13:27;23.30;86.10
43015;DHT22;28637;50.554;7.032;2023-07-16T13:18:28;23.40;87.20
43015;DHT22;28637;50.554;7.032;2023-07-16T13:23:29;23.00;87.00
43015;DHT22;28637;50.554;7.032;2023-07-16T13:28:29;23.30;88.60
43015;DHT22;28637;50.554;7.032;2023-07-16T13:33:30;24.10;86.70
43015;DHT22;28637;50.554;7.032;2023-07-16T13:38:31;24.10;85.40
43015;DHT22;28637;50.554;7.032;2023-07-16T13:43:31;24.30;85.70
43015;DHT22;28637;50.554;7.032;2023-07-16T13:48:32;24.10;84.00
43015;DHT22;28637;50.554;7.032;2023-07-16T13:53:32;23.70;85.10
43015;DHT22;28637;50.554;7.032;2023-07-16T13:58:33;23.50;84.50
43015;DHT22;28637;50.554;7.032;2023-07-16T14:03:34;23.30;86.20
43015;DHT22;28637;50.554;7.032;2023-07-16T14:08:34;23.40;84.20
43015;DHT22;28637;50.554;7.032;2023-07-16T14:13:36;23.90;86.60
43015;DHT22;28637;50.554;7.032;2023-07-16T14:18:36;24.60;84.70
43015;DHT22;28637;50.554;7.032;2023-07-16T14:23:37;24.60;84.10
43015;DHT22;28637;50.554;7.032;2023-07-16T14:28:37;24.30;83.10
43015;DHT22;28637;50.554;7.032;2023-07-16T14:33:38;23.80;84.10
43015;DHT22;28637;50.554;7.032;2023-07-16T14:38:39;23.80;84.30
43015;DHT22;28637;50.554;7.032;2023-07-16T14:43:40;24.70;87.20
43015;DHT22;28637;50.554;7.032;2023-07-16T14:48:41;25.10;84.10
43015;DHT22;28637;50.554;7.032;2023-07-16T14:53:42;24.60;81.60
43015;DHT22;28637;50.554;7.032;2023-07-16T14:58:43;24.60;85.30
43015;DHT22;28637;50.554;7.032;2023-07-16T15:03:43;24.70;83.40
43015;DHT22;28637;50.554;7.032;2023-07-16T15:08:44;24.50;83.30
43015;DHT22;28637;50.554;7.032;2023-07-16T15:13:45;24.40;83.70
43015;DHT22;28637;50.554;7.032;2023-07-16T15:18:45;24.30;83.00
43015;DHT22;28637;50.554;7.032;2023-07-16T15:23:46;24.40;83.00
43015;DHT22;28637;50.554;7.032;2023-07-16T15:28:46;24.30;83.00
43015;DHT22;28637;50.554;7.032;2023-07-16T15:33:47;24.70;82.30
43015;DHT22;28637;50.554;7.032;2023-07-16T15:38:48;24.70;82.40
43015;DHT22;28637;50.554;7.032;2023-07-16T15:43:48;24.50;82.00
43015;DHT22;28637;50.554;7.032;2023-07-16T15:48:50;24.10;82.10
43015;DHT22;28637;50.554;7.032;2023-07-16T15:53:53;23.90;82.90
43015;DHT22;28637;50.554;7.032;2023-07-16T15:58:54;24.00;85.50
43015;DHT22;28637;50.554;7.032;2023-07-16T16:03:55;24.20;84.50
43015;DHT22;28637;50.554;7.032;2023-07-16T16:08:55;24.40;82.80
43015;DHT22;28637;50.554;7.032;2023-07-16T16:13:56;24.60;83.00
43015;DHT22;28637;50.554;7.032;2023-07-16T16:18:57;25.20;82.60
43015;DHT22;28637;50.554;7.032;2023-07-16T16:23:57;25.70;81.60
43015;DHT22;28637;50.554;7.032;2023-07-16T16:29:00;25.60;80.00
43015;DHT22;28637;50.554;7.032;2023-07-16T16:34:00;25.20;82.40
43015;DHT22;28637;50.554;7.032;2023-07-16T16:39:01;25.10;82.10
43015;DHT22;28637;50.554;7.032;2023-07-16T16:44:02;25.20;80.50
43015;DHT22;28637;50.554;7.032;2023-07-16T16:49:02;25.10;80.50
43015;DHT22;28637;50.554;7.032;2023-07-16T16:54:03;25.00;80.50
43015;DHT22;28637;50.554;7.032;2023-07-16T16:59:04;24.80;79.40
43015;DHT22;28637;50.554;7.032;2023-07-16T17:04:04;23.60;79.40
43015;DHT22;28637;50.554;7.032;2023-07-16T17:09:05;23.20;80.60
43015;DHT22;28637;50.554;7.032;2023-07-16T17:14:05;23.00;82.00
43015;DHT22;28637;50.554;7.032;2023-07-16T17:19:06;23.10;82.70
43015;DHT22;28637;50.554;7.032;2023-07-16T17:24:07;23.10;82.20
43015;DHT22;28637;50.554;7.032;2023-07-16T17:29:08;22.80;83.30
43015;DHT22;28637;50.554;7.032;2023-07-16T17:34:08;22.80;84.10
43015;DHT22;28637;50.554;7.032;2023-07-16T17:39:09;22.90;84.30
43015;DHT22;28637;50.554;7.032;2023-07-16T17:44:10;22.80;83.40
43015;DHT22;28637;50.554;7.032;2023-07-16T17:49:10;22.70;83.30
43015;DHT22;28637;50.554;7.032;2023-07-16T17:54:11;22.60;82.90
43015;DHT22;28637;50.554;7.032;2023-07-16T17:59:12;22.40;84.00
43015;DHT22;28637;50.554;7.032;2023-07-16T18:04:13;22.40;84.70
43015;DHT22;28637;50.554;7.032;2023-07-16T18:09:14;22.40;85.30
43015;DHT22;28637;50.554;7.032;2023-07-16T18:14:15;22.30;84.60
43015;DHT22;28637;50.554;7.032;2023-07-16T18:19:15;22.20;85.70
43015;DHT22;28637;50.554;7.032;2023-07-16T18:24:16;22.00;85.10
43015;DHT22;28637;50.554;7.032;2023-07-16T18:29:17;21.90;84.90
43015;DHT22;28637;50.554;7.032;2023-07-16T18:34:17;21.80;86.10
43015;DHT22;28637;50.554;7.032;2023-07-16T18:39:18;21.70;86.50
43015;DHT22;28637;50.554;7.032;2023-07-16T18:44:18;21.70;86.50
43015;DHT22;28637;50.554;7.032;2023-07-16T18:49:19;21.60;85.80
43015;DHT22;28637;50.554;7.032;2023-07-16T18:54:19;21.50;86.10
43015;DHT22;28637;50.554;7.032;2023-07-16T18:59:20;21.50;85.60
43015;DHT22;28637;50.554;7.032;2023-07-16T19:04:21;21.40;86.30
43015;DHT22;28637;50.554;7.032;2023-07-16T19:09:21;21.10;86.10
43015;DHT22;28637;50.554;7.032;2023-07-16T19:14:22;21.00;86.60
43015;DHT22;28637;50.554;7.032;2023-07-16T19:19:23;20.80;87.30
43015;DHT22;28637;50.554;7.032;2023-07-16T19:24:23;20.70;87.60
43015;DHT22;28637;50.554;7.032;2023-07-16T19:29:24;20.50;88.40
43015;DHT22;28637;50.554;7.032;2023-07-16T19:34:24;20.40;90.20
43015;DHT22;28637;50.554;7.032;2023-07-16T19:39:25;20.30;89.30
43015;DHT22;28637;50.554;7.032;2023-07-16T19:44:26;20.10;89.90
43015;DHT22;28637;50.554;7.032;2023-07-16T19:49:26;19.80;90.30
43015;DHT22;28637;50.554;7.032;2023-07-16T19:54:27;19.60;90.60
43015;DHT22;28637;50.554;7.032;2023-07-16T19:59:28;19.40;90.90
43015;DHT22;28637;50.554;7.032;2023-07-16T20:04:28;19.20;91.90
43015;DHT22;28637;50.554;7.032;2023-07-16T20:09:29;18.70;92.50
43015;DHT22;28637;50.554;7.032;2023-07-16T20:14:29;18.40;92.80
43015;DHT22;28637;50.554;7.032;2023-07-16T20:19:30;18.30;93.50
43015;DHT22;28637;50.554;7.032;2023-07-16T20:24:31;18.00;94.00
43015;DHT22;28637;50.554;7.032;2023-07-16T20:29:32;17.80;94.70
43015;DHT22;28637;50.554;7.032;2023-07-16T20:34:33;17.60;95.30
43015;DHT22;28637;50.554;7.032;2023-07-16T20:39:33;17.40;95.70
43015;DHT22;28637;50.554;7.032;2023-07-16T20:44:36;17.10;95.80
43015;DHT22;28637;50.554;7.032;2023-07-16T20:49:37;16.90;95.90
43015;DHT22;28637;50.554;7.032;2023-07-16T20:54:37;16.70;96.60
43015;DHT22;28637;50.554;7.032;2023-07-16T20:59:38;16.30;97.10
43015;DHT22;28637;50.554;7.032;2023-07-16T21:04:38;16.30;97.30
43015;DHT22;28637;50.554;7.032;2023-07-16T21:09:39;16.30;98.30
43015;DHT22;28637;50.554;7.032;2023-07-16T21:14:40;16.10;98.50
43015;DHT22;28637;50.554;7.032;2023-07-16T21:19:40;16.20;98.60
43015;DHT22;28637;50.554;7.032;2023-07-16T21:24:41;16.40;98.20
43015;DHT22;28637;50.554;7.032;2023-07-16T21:29:42;16.70;98.00
43015;DHT22;28637;50.554;7.032;2023-07-16T21:34:42;16.80;97.60
43015;DHT22;28637;50.554;7.032;2023-07-16T21:39:43;16.90;97.50
43015;DHT22;28637;50.554;7.032;2023-07-16T21:44:44;16.90;97.30
43015;DHT22;28637;50.554;7.032;2023-07-16T21:49:44;16.80;97.50
43015;DHT22;28637;50.554;7.032;2023-07-16T21:54:46;16.80;97.70
43015;DHT22;28637;50.554;7.032;2023-07-16T21:59:47;16.70;97.80
43015;DHT22;28637;50.554;7.032;2023-07-16T22:04:48;16.60;98.10
43015;DHT22;28637;50.554;7.032;2023-07-16T22:09:49;16.50;98.40
43015;DHT22;28637;50.554;7.032;2023-07-16T22:14:49;16.50;98.50
43015;DHT22;28637;50.554;7.032;2023-07-16T22:19:50;16.60;98.50
43015;DHT22;28637;50.554;7.032;2023-07-16T22:24:51;16.50;98.30
43015;DHT22;28637;50.554;7.032;2023-07-16T22:29:52;16.60;98.70
43015;DHT22;28637;50.554;7.032;2023-07-16T22:34:52;16.60;98.90
43015;DHT22;28637;50.554;7.032;2023-07-16T22:39:53;16.60;98.70
43015;DHT22;28637;50.554;7.032;2023-07-16T22:44:54;16.60;99.60
43015;DHT22;28637;50.554;7.032;2023-07-16T22:49:54;16.60;99.90
43015;DHT22;28637;50.554;7.032;2023-07-16T22:54:55;16.60;99.90
43015;DHT22;28637;50.554;7.032;2023-07-16T22:59:55;16.30;99.90
43015;DHT22;28637;50.554;7.032;2023-07-16T23:04:57;16.20;99.90
43015;DHT22;28637;50.554;7.032;2023-07-16T23:09:57;16.10;99.90
43015;DHT22;28637;50.554;7.032;2023-07-16T23:14:58;15.90;99.90
43015;DHT22;28637;50.554;7.032;2023-07-16T23:19:58;15.70;99.90
43015;DHT22;28637;50.554;7.032;2023-07-16T23:24:59;15.60;99.90
43015;DHT22;28637;50.554;7.032;2023-07-16T23:30:00;15.30;99.90
43015;DHT22;28637;50.554;7.032;2023-07-16T23:35:01;15.10;99.90
43015;DHT22;28637;50.554;7.032;2023-07-16T23:40:02;15.10;99.90
43015;DHT22;28637;50.554;7.032;2023-07-16T23:45:06;15.20;99.90
43015;DHT22;28637;50.554;7.032;2023-07-16T23:50:08;15.20;99.90
43015;DHT22;28637;50.554;7.032;2023-07-16T23:55:09;15.20;99.90
